Terminal Aerodrome Forecast
Issued by NWS

Home | Current Version | Previous Version | Text Only | Print | Product List | Glossary On
Versions: 1 2 3 4 5 6 7 8 9 10 11 12 13 14 15 16 17 18 19 20 21 22 23 24 25 26 27 28 29 30 31
000
FTUS41 KOKX 280626 RRA
TAFGON
TAF
KGON 280626Z 2806/2906 VRB04KT P6SM BKN020
      TEMPO 2806/2808 6SM BR SCT020 SCT120
     FM280800 VRB03KT 4SM BR BKN008
      TEMPO 2808/2810 6SM BR SCT008 BKN015
     FM281400 17006KT P6SM FEW030 SCT120 BKN250
     FM282100 13006KT P6SM FEW040 SCT120 BKN250
     FM290200 06005KT P6SM SCT004 BKN150=

USA.gov is the U.S. government's official web portal to all federal, state and local government web resources and services.